sensor_id;sensor_type;location;lat;lon;timestamp;P1;durP1;ratioP1;P2;durP2;ratioP2
8086;SDS011;4086;54.412;9.980;2023-02-01T00:01:53;23.17;;;3.20;;
8086;SDS011;4086;54.412;9.980;2023-02-01T00:04:20;18.90;;;3.67;;
8086;SDS011;4086;54.412;9.980;2023-02-01T00:06:47;21.47;;;3.93;;
8086;SDS011;4086;54.412;9.980;2023-02-01T00:09:13;18.10;;;3.77;;
8086;SDS011;4086;54.412;9.980;2023-02-01T00:11:39;23.57;;;4.10;;
8086;SDS011;4086;54.412;9.980;2023-02-01T00:14:06;16.77;;;3.20;;
8086;SDS011;4086;54.412;9.980;2023-02-01T00:16:34;19.30;;;2.90;;
8086;SDS011;4086;54.412;9.980;2023-02-01T00:19:01;15.03;;;3.00;;
8086;SDS011;4086;54.412;9.980;2023-02-01T00:21:29;18.40;;;3.50;;
8086;SDS011;4086;54.412;9.980;2023-02-01T00:23:56;19.47;;;3.77;;
8086;SDS011;4086;54.412;9.980;2023-02-01T00:26:22;19.70;;;3.83;;
8086;SDS011;4086;54.412;9.980;2023-02-01T00:28:52;16.97;;;3.67;;
8086;SDS011;4086;54.412;9.980;2023-02-01T00:31:19;21.77;;;4.37;;
8086;SDS011;4086;54.412;9.980;2023-02-01T00:33:47;18.53;;;3.20;;
8086;SDS011;4086;54.412;9.980;2023-02-01T00:36:14;15.93;;;3.43;;
8086;SDS011;4086;54.412;9.980;2023-02-01T00:38:41;23.17;;;4.10;;
8086;SDS011;4086;54.412;9.980;2023-02-01T00:41:09;15.83;;;3.20;;
8086;SDS011;4086;54.412;9.980;2023-02-01T00:43:36;18.07;;;3.73;;
8086;SDS011;4086;54.412;9.980;2023-02-01T00:46:02;16.80;;;3.63;;
8086;SDS011;4086;54.412;9.980;2023-02-01T00:48:29;23.27;;;3.33;;
8086;SDS011;4086;54.412;9.980;2023-02-01T00:50:59;25.60;;;4.33;;
8086;SDS011;4086;54.412;9.980;2023-02-01T00:53:26;19.50;;;3.77;;
8086;SDS011;4086;54.412;9.980;2023-02-01T00:55:52;20.77;;;3.80;;
8086;SDS011;4086;54.412;9.980;2023-02-01T00:58:19;29.77;;;4.37;;
8086;SDS011;4086;54.412;9.980;2023-02-01T01:00:45;25.40;;;4.70;;
8086;SDS011;4086;54.412;9.980;2023-02-01T01:03:14;24.57;;;4.57;;
8086;SDS011;4086;54.412;9.980;2023-02-01T01:05:46;18.00;;;3.73;;
8086;SDS011;4086;54.412;9.980;2023-02-01T01:08:14;19.37;;;3.40;;
8086;SDS011;4086;54.412;9.980;2023-02-01T01:10:42;20.47;;;3.57;;
8086;SDS011;4086;54.412;9.980;2023-02-01T01:13:09;19.80;;;4.57;;
8086;SDS011;4086;54.412;9.980;2023-02-01T01:15:35;24.90;;;4.27;;
8086;SDS011;4086;54.412;9.980;2023-02-01T01:18:02;28.63;;;5.03;;
8086;SDS011;4086;54.412;9.980;2023-02-01T01:20:29;22.47;;;3.37;;
8086;SDS011;4086;54.412;9.980;2023-02-01T01:22:55;17.33;;;3.67;;
8086;SDS011;4086;54.412;9.980;2023-02-01T01:25:23;21.67;;;4.07;;
8086;SDS011;4086;54.412;9.980;2023-02-01T01:27:49;18.63;;;3.40;;
8086;SDS011;4086;54.412;9.980;2023-02-01T01:30:16;23.20;;;4.23;;
8086;SDS011;4086;54.412;9.980;2023-02-01T01:32:42;22.53;;;3.70;;
8086;SDS011;4086;54.412;9.980;2023-02-01T01:35:09;14.97;;;4.17;;
8086;SDS011;4086;54.412;9.980;2023-02-01T01:37:36;23.50;;;4.17;;
8086;SDS011;4086;54.412;9.980;2023-02-01T01:40:02;18.43;;;3.27;;
8086;SDS011;4086;54.412;9.980;2023-02-01T01:42:32;16.33;;;4.33;;
8086;SDS011;4086;54.412;9.980;2023-02-01T01:45:04;22.50;;;3.70;;
8086;SDS011;4086;54.412;9.980;2023-02-01T01:47:33;18.50;;;3.70;;
8086;SDS011;4086;54.412;9.980;2023-02-01T01:50:01;21.80;;;3.90;;
8086;SDS011;4086;54.412;9.980;2023-02-01T01:52:28;17.47;;;4.10;;
8086;SDS011;4086;54.412;9.980;2023-02-01T01:54:55;22.43;;;3.67;;
8086;SDS011;4086;54.412;9.980;2023-02-01T01:57:22;17.57;;;3.47;;
8086;SDS011;4086;54.412;9.980;2023-02-01T01:59:53;19.43;;;4.40;;
8086;SDS011;4086;54.412;9.980;2023-02-01T02:02:22;19.90;;;3.50;;
8086;SDS011;4086;54.412;9.980;2023-02-01T02:04:49;25.00;;;4.43;;
8086;SDS011;4086;54.412;9.980;2023-02-01T02:07:17;20.83;;;3.03;;
8086;SDS011;4086;54.412;9.980;2023-02-01T02:09:47;17.17;;;3.80;;
8086;SDS011;4086;54.412;9.980;2023-02-01T02:12:13;16.90;;;3.67;;
8086;SDS011;4086;54.412;9.980;2023-02-01T02:14:40;15.00;;;3.03;;
8086;SDS011;4086;54.412;9.980;2023-02-01T02:17:10;16.60;;;3.20;;
8086;SDS011;4086;54.412;9.980;2023-02-01T02:22:51;21.03;;;4.30;;
8086;SDS011;4086;54.412;9.980;2023-02-01T02:28:24;18.93;;;3.73;;
8086;SDS011;4086;54.412;9.980;2023-02-01T02:31:05;18.40;;;3.80;;
8086;SDS011;4086;54.412;9.980;2023-02-01T02:33:56;17.73;;;3.40;;
8086;SDS011;4086;54.412;9.980;2023-02-01T02:36:29;15.87;;;3.50;;
8086;SDS011;4086;54.412;9.980;2023-02-01T02:39:03;27.97;;;4.37;;
8086;SDS011;4086;54.412;9.980;2023-02-01T02:41:34;21.83;;;4.27;;
8086;SDS011;4086;54.412;9.980;2023-02-01T02:44:24;19.63;;;4.70;;
8086;SDS011;4086;54.412;9.980;2023-02-01T02:47:13;18.90;;;4.00;;
8086;SDS011;4086;54.412;9.980;2023-02-01T02:49:55;20.10;;;4.10;;
8086;SDS011;4086;54.412;9.980;2023-02-01T02:52:44;15.03;;;3.47;;
8086;SDS011;4086;54.412;9.980;2023-02-01T02:55:30;14.57;;;3.30;;
8086;SDS011;4086;54.412;9.980;2023-02-01T02:57:58;20.87;;;4.80;;
8086;SDS011;4086;54.412;9.980;2023-02-01T03:00:42;20.27;;;3.27;;
8086;SDS011;4086;54.412;9.980;2023-02-01T03:03:28;18.73;;;4.53;;
8086;SDS011;4086;54.412;9.980;2023-02-01T03:06:14;22.40;;;4.10;;
8086;SDS011;4086;54.412;9.980;2023-02-01T03:08:43;21.10;;;4.50;;
8086;SDS011;4086;54.412;9.980;2023-02-01T03:11:10;19.90;;;4.13;;
8086;SDS011;4086;54.412;9.980;2023-02-01T03:13:39;18.77;;;3.83;;
8086;SDS011;4086;54.412;9.980;2023-02-01T03:16:10;29.17;;;4.93;;
8086;SDS011;4086;54.412;9.980;2023-02-01T03:18:41;18.13;;;4.17;;
8086;SDS011;4086;54.412;9.980;2023-02-01T03:21:14;21.00;;;4.03;;
8086;SDS011;4086;54.412;9.980;2023-02-01T03:23:42;21.43;;;3.90;;
8086;SDS011;4086;54.412;9.980;2023-02-01T03:26:11;19.30;;;3.60;;
8086;SDS011;4086;54.412;9.980;2023-02-01T03:28:41;21.87;;;4.70;;
8086;SDS011;4086;54.412;9.980;2023-02-01T03:31:09;25.10;;;4.20;;
8086;SDS011;4086;54.412;9.980;2023-02-01T03:33:35;21.27;;;4.77;;
8086;SDS011;4086;54.412;9.980;2023-02-01T03:36:04;24.70;;;4.00;;
8086;SDS011;4086;54.412;9.980;2023-02-01T03:38:38;22.20;;;3.47;;
8086;SDS011;4086;54.412;9.980;2023-02-01T03:41:08;24.80;;;4.17;;
8086;SDS011;4086;54.412;9.980;2023-02-01T03:43:39;13.80;;;3.43;;
8086;SDS011;4086;54.412;9.980;2023-02-01T03:46:11;14.50;;;3.33;;
8086;SDS011;4086;54.412;9.980;2023-02-01T03:48:40;11.17;;;2.83;;
8086;SDS011;4086;54.412;9.980;2023-02-01T03:51:06;10.27;;;2.93;;
8086;SDS011;4086;54.412;9.980;2023-02-01T03:53:34;8.60;;;2.43;;
8086;SDS011;4086;54.412;9.980;2023-02-01T03:56:03;12.37;;;2.83;;
8086;SDS011;4086;54.412;9.980;2023-02-01T03:58:30;9.70;;;2.30;;
8086;SDS011;4086;54.412;9.980;2023-02-01T04:00:57;11.67;;;2.40;;
8086;SDS011;4086;54.412;9.980;2023-02-01T04:03:25;12.70;;;2.83;;
8086;SDS011;4086;54.412;9.980;2023-02-01T04:05:52;6.97;;;1.67;;
8086;SDS011;4086;54.412;9.980;2023-02-01T04:08:19;10.43;;;2.07;;
8086;SDS011;4086;54.412;9.980;2023-02-01T04:10:46;13.03;;;2.83;;
8086;SDS011;4086;54.412;9.980;2023-02-01T04:13:14;13.03;;;2.37;;
8086;SDS011;4086;54.412;9.980;2023-02-01T04:15:41;8.27;;;2.03;;
8086;SDS011;4086;54.412;9.980;2023-02-01T04:18:08;6.80;;;2.27;;
8086;SDS011;4086;54.412;9.980;2023-02-01T04:20:34;5.27;;;1.50;;
8086;SDS011;4086;54.412;9.980;2023-02-01T04:23:00;7.43;;;2.30;;
8086;SDS011;4086;54.412;9.980;2023-02-01T04:25:28;5.00;;;1.47;;
8086;SDS011;4086;54.412;9.980;2023-02-01T04:27:54;12.10;;;2.37;;
8086;SDS011;4086;54.412;9.980;2023-02-01T04:30:22;8.67;;;2.20;;
8086;SDS011;4086;54.412;9.980;2023-02-01T04:32:49;12.13;;;2.40;;
8086;SDS011;4086;54.412;9.980;2023-02-01T04:35:15;12.10;;;3.10;;
8086;SDS011;4086;54.412;9.980;2023-02-01T04:37:42;13.90;;;2.57;;
8086;SDS011;4086;54.412;9.980;2023-02-01T04:40:09;7.80;;;1.93;;
8086;SDS011;4086;54.412;9.980;2023-02-01T04:42:36;13.03;;;2.30;;
8086;SDS011;4086;54.412;9.980;2023-02-01T04:45:03;10.57;;;2.07;;
8086;SDS011;4086;54.412;9.980;2023-02-01T04:47:31;7.13;;;2.20;;
8086;SDS011;4086;54.412;9.980;2023-02-01T04:49:58;11.23;;;2.77;;
8086;SDS011;4086;54.412;9.980;2023-02-01T04:52:24;14.30;;;2.70;;
8086;SDS011;4086;54.412;9.980;2023-02-01T04:54:52;13.10;;;2.77;;
8086;SDS011;4086;54.412;9.980;2023-02-01T04:57:22;16.23;;;2.60;;
8086;SDS011;4086;54.412;9.980;2023-02-01T04:59:48;12.97;;;2.30;;
8086;SDS011;4086;54.412;9.980;2023-02-01T05:02:15;16.77;;;2.47;;
8086;SDS011;4086;54.412;9.980;2023-02-01T05:04:42;8.27;;;2.00;;
8086;SDS011;4086;54.412;9.980;2023-02-01T05:07:09;8.73;;;2.00;;
8086;SDS011;4086;54.412;9.980;2023-02-01T05:09:35;7.97;;;3.03;;
8086;SDS011;4086;54.412;9.980;2023-02-01T05:12:02;9.60;;;2.23;;
8086;SDS011;4086;54.412;9.980;2023-02-01T05:14:46;6.87;;;1.77;;
8086;SDS011;4086;54.412;9.980;2023-02-01T05:17:14;7.30;;;2.13;;
8086;SDS011;4086;54.412;9.980;2023-02-01T05:19:40;12.03;;;2.43;;
8086;SDS011;4086;54.412;9.980;2023-02-01T05:22:08;17.50;;;2.73;;
8086;SDS011;4086;54.412;9.980;2023-02-01T05:24:34;9.33;;;2.23;;
8086;SDS011;4086;54.412;9.980;2023-02-01T05:27:00;13.23;;;2.70;;
8086;SDS011;4086;54.412;9.980;2023-02-01T05:29:27;11.20;;;2.77;;
8086;SDS011;4086;54.412;9.980;2023-02-01T05:31:53;10.90;;;3.00;;
8086;SDS011;4086;54.412;9.980;2023-02-01T05:34:20;13.17;;;2.73;;
8086;SDS011;4086;54.412;9.980;2023-02-01T05:36:46;13.27;;;2.83;;
8086;SDS011;4086;54.412;9.980;2023-02-01T05:39:14;10.87;;;2.50;;
8086;SDS011;4086;54.412;9.980;2023-02-01T05:41:40;12.10;;;2.33;;
8086;SDS011;4086;54.412;9.980;2023-02-01T05:44:06;12.07;;;2.57;;
8086;SDS011;4086;54.412;9.980;2023-02-01T05:46:33;9.67;;;2.10;;
8086;SDS011;4086;54.412;9.980;2023-02-01T05:49:00;9.03;;;2.00;;
8086;SDS011;4086;54.412;9.980;2023-02-01T05:51:26;13.03;;;2.00;;
8086;SDS011;4086;54.412;9.980;2023-02-01T05:53:52;11.60;;;2.10;;
8086;SDS011;4086;54.412;9.980;2023-02-01T05:56:20;9.70;;;1.93;;
8086;SDS011;4086;54.412;9.980;2023-02-01T05:58:46;16.20;;;2.70;;
8086;SDS011;4086;54.412;9.980;2023-02-01T06:01:13;9.67;;;1.73;;
8086;SDS011;4086;54.412;9.980;2023-02-01T06:03:39;13.30;;;2.93;;
8086;SDS011;4086;54.412;9.980;2023-02-01T06:06:05;9.57;;;2.03;;
8086;SDS011;4086;54.412;9.980;2023-02-01T06:08:32;9.07;;;2.30;;
8086;SDS011;4086;54.412;9.980;2023-02-01T06:10:59;16.37;;;3.03;;
8086;SDS011;4086;54.412;9.980;2023-02-01T06:13:27;13.87;;;3.30;;
8086;SDS011;4086;54.412;9.980;2023-02-01T06:15:53;11.10;;;2.60;;
8086;SDS011;4086;54.412;9.980;2023-02-01T06:18:20;10.80;;;2.67;;
8086;SDS011;4086;54.412;9.980;2023-02-01T06:20:51;13.07;;;3.03;;
8086;SDS011;4086;54.412;9.980;2023-02-01T06:23:18;7.93;;;2.50;;
8086;SDS011;4086;54.412;9.980;2023-02-01T06:25:44;12.50;;;2.27;;
8086;SDS011;4086;54.412;9.980;2023-02-01T06:28:11;10.07;;;2.27;;
8086;SDS011;4086;54.412;9.980;2023-02-01T06:30:38;13.43;;;3.23;;
8086;SDS011;4086;54.412;9.980;2023-02-01T06:33:05;8.27;;;1.80;;
8086;SDS011;4086;54.412;9.980;2023-02-01T06:35:32;14.67;;;2.40;;
8086;SDS011;4086;54.412;9.980;2023-02-01T06:37:58;13.90;;;2.70;;
8086;SDS011;4086;54.412;9.980;2023-02-01T06:40:25;15.23;;;3.13;;
8086;SDS011;4086;54.412;9.980;2023-02-01T06:42:51;11.70;;;2.60;;
8086;SDS011;4086;54.412;9.980;2023-02-01T06:45:17;13.17;;;2.80;;
8086;SDS011;4086;54.412;9.980;2023-02-01T06:47:45;11.67;;;3.03;;
8086;SDS011;4086;54.412;9.980;2023-02-01T06:50:11;10.90;;;2.70;;
8086;SDS011;4086;54.412;9.980;2023-02-01T06:52:38;11.47;;;2.43;;
8086;SDS011;4086;54.412;9.980;2023-02-01T06:55:04;12.83;;;2.20;;
8086;SDS011;4086;54.412;9.980;2023-02-01T06:57:31;8.23;;;2.03;;
8086;SDS011;4086;54.412;9.980;2023-02-01T06:59:59;14.87;;;3.10;;
8086;SDS011;4086;54.412;9.980;2023-02-01T07:02:25;10.90;;;2.63;;
8086;SDS011;4086;54.412;9.980;2023-02-01T07:04:53;13.93;;;2.67;;
8086;SDS011;4086;54.412;9.980;2023-02-01T07:07:19;11.73;;;2.63;;
8086;SDS011;4086;54.412;9.980;2023-02-01T07:09:47;10.20;;;2.53;;
8086;SDS011;4086;54.412;9.980;2023-02-01T07:12:13;17.93;;;3.33;;
8086;SDS011;4086;54.412;9.980;2023-02-01T07:14:40;11.70;;;2.60;;
8086;SDS011;4086;54.412;9.980;2023-02-01T07:17:06;10.43;;;2.47;;
8086;SDS011;4086;54.412;9.980;2023-02-01T07:19:33;18.80;;;2.80;;
8086;SDS011;4086;54.412;9.980;2023-02-01T07:22:00;13.50;;;3.33;;
8086;SDS011;4086;54.412;9.980;2023-02-01T07:24:27;18.07;;;3.13;;
8086;SDS011;4086;54.412;9.980;2023-02-01T07:26:54;15.07;;;3.27;;
8086;SDS011;4086;54.412;9.980;2023-02-01T07:29:20;17.10;;;2.60;;
8086;SDS011;4086;54.412;9.980;2023-02-01T07:31:46;17.07;;;2.97;;
8086;SDS011;4086;54.412;9.980;2023-02-01T07:34:13;15.23;;;3.00;;
8086;SDS011;4086;54.412;9.980;2023-02-01T07:36:39;18.27;;;3.63;;
8086;SDS011;4086;54.412;9.980;2023-02-01T07:39:08;16.07;;;2.73;;
8086;SDS011;4086;54.412;9.980;2023-02-01T07:41:34;17.20;;;3.17;;
8086;SDS011;4086;54.412;9.980;2023-02-01T07:44:00;17.50;;;3.73;;
8086;SDS011;4086;54.412;9.980;2023-02-01T07:46:27;12.43;;;2.57;;
8086;SDS011;4086;54.412;9.980;2023-02-01T07:48:53;18.67;;;3.37;;
8086;SDS011;4086;54.412;9.980;2023-02-01T07:51:20;21.07;;;3.03;;
8086;SDS011;4086;54.412;9.980;2023-02-01T07:53:46;19.63;;;3.60;;
8086;SDS011;4086;54.412;9.980;2023-02-01T07:56:14;17.97;;;3.70;;
8086;SDS011;4086;54.412;9.980;2023-02-01T07:58:42;23.23;;;3.50;;
8086;SDS011;4086;54.412;9.980;2023-02-01T08:01:13;19.17;;;3.50;;
8086;SDS011;4086;54.412;9.980;2023-02-01T08:03:45;16.33;;;3.50;;
8086;SDS011;4086;54.412;9.980;2023-02-01T08:06:11;14.73;;;3.23;;
8086;SDS011;4086;54.412;9.980;2023-02-01T08:08:37;12.90;;;2.97;;
8086;SDS011;4086;54.412;9.980;2023-02-01T08:11:04;20.30;;;3.93;;
8086;SDS011;4086;54.412;9.980;2023-02-01T08:13:33;16.23;;;3.07;;
8086;SDS011;4086;54.412;9.980;2023-02-01T08:16:00;17.07;;;3.57;;
8086;SDS011;4086;54.412;9.980;2023-02-01T08:18:28;11.70;;;2.37;;
8086;SDS011;4086;54.412;9.980;2023-02-01T08:20:54;12.40;;;3.47;;
8086;SDS011;4086;54.412;9.980;2023-02-01T08:23:21;14.50;;;3.23;;
8086;SDS011;4086;54.412;9.980;2023-02-01T08:25:48;11.53;;;2.63;;
8086;SDS011;4086;54.412;9.980;2023-02-01T08:28:15;15.80;;;3.67;;
8086;SDS011;4086;54.412;9.980;2023-02-01T08:30:42;9.67;;;2.43;;
8086;SDS011;4086;54.412;9.980;2023-02-01T08:33:09;6.83;;;2.23;;
8086;SDS011;4086;54.412;9.980;2023-02-01T08:35:36;13.17;;;2.57;;
8086;SDS011;4086;54.412;9.980;2023-02-01T08:38:03;11.97;;;2.60;;
8086;SDS011;4086;54.412;9.980;2023-02-01T08:40:30;14.10;;;2.63;;
8086;SDS011;4086;54.412;9.980;2023-02-01T08:42:57;12.20;;;3.27;;
8086;SDS011;4086;54.412;9.980;2023-02-01T08:45:26;10.67;;;3.00;;
8086;SDS011;4086;54.412;9.980;2023-02-01T08:47:55;15.00;;;2.93;;
8086;SDS011;4086;54.412;9.980;2023-02-01T08:50:23;16.50;;;3.17;;
8086;SDS011;4086;54.412;9.980;2023-02-01T08:52:50;12.07;;;2.70;;
8086;SDS011;4086;54.412;9.980;2023-02-01T08:55:17;13.57;;;2.80;;
8086;SDS011;4086;54.412;9.980;2023-02-01T08:57:44;6.23;;;1.90;;
8086;SDS011;4086;54.412;9.980;2023-02-01T09:00:12;12.23;;;2.73;;
8086;SDS011;4086;54.412;9.980;2023-02-01T09:02:44;14.70;;;2.57;;
8086;SDS011;4086;54.412;9.980;2023-02-01T09:05:11;14.97;;;2.90;;
8086;SDS011;4086;54.412;9.980;2023-02-01T09:07:39;15.07;;;2.80;;
8086;SDS011;4086;54.412;9.980;2023-02-01T09:10:05;14.53;;;3.17;;
8086;SDS011;4086;54.412;9.980;2023-02-01T09:12:33;7.10;;;2.40;;
8086;SDS011;4086;54.412;9.980;2023-02-01T09:15:00;9.73;;;2.33;;
8086;SDS011;4086;54.412;9.980;2023-02-01T09:17:26;11.57;;;3.50;;
8086;SDS011;4086;54.412;9.980;2023-02-01T09:19:53;13.53;;;2.73;;
8086;SDS011;4086;54.412;9.980;2023-02-01T09:22:21;16.80;;;3.37;;
8086;SDS011;4086;54.412;9.980;2023-02-01T09:24:47;22.23;;;3.03;;
8086;SDS011;4086;54.412;9.980;2023-02-01T09:27:13;11.50;;;3.10;;
8086;SDS011;4086;54.412;9.980;2023-02-01T09:29:40;10.13;;;2.23;;
8086;SDS011;4086;54.412;9.980;2023-02-01T09:32:06;10.73;;;2.80;;
8086;SDS011;4086;54.412;9.980;2023-02-01T09:34:33;12.30;;;2.73;;
8086;SDS011;4086;54.412;9.980;2023-02-01T09:36:59;11.27;;;2.60;;
8086;SDS011;4086;54.412;9.980;2023-02-01T09:39:27;19.27;;;3.67;;
8086;SDS011;4086;54.412;9.980;2023-02-01T09:41:57;12.50;;;3.17;;
8086;SDS011;4086;54.412;9.980;2023-02-01T09:44:36;16.67;;;2.60;;
8086;SDS011;4086;54.412;9.980;2023-02-01T09:47:11;17.07;;;2.77;;
8086;SDS011;4086;54.412;9.980;2023-02-01T09:49:39;14.20;;;3.03;;
8086;SDS011;4086;54.412;9.980;2023-02-01T09:52:11;11.90;;;2.30;;
8086;SDS011;4086;54.412;9.980;2023-02-01T09:54:40;14.63;;;3.33;;
8086;SDS011;4086;54.412;9.980;2023-02-01T09:57:11;16.10;;;3.27;;
8086;SDS011;4086;54.412;9.980;2023-02-01T09:59:41;16.50;;;3.63;;
8086;SDS011;4086;54.412;9.980;2023-02-01T10:02:11;15.97;;;3.37;;
8086;SDS011;4086;54.412;9.980;2023-02-01T10:04:39;16.47;;;2.70;;
8086;SDS011;4086;54.412;9.980;2023-02-01T10:07:08;13.70;;;3.83;;
8086;SDS011;4086;54.412;9.980;2023-02-01T10:09:44;13.23;;;2.43;;
8086;SDS011;4086;54.412;9.980;2023-02-01T10:12:23;18.67;;;3.13;;
8086;SDS011;4086;54.412;9.980;2023-02-01T10:15:09;13.73;;;3.13;;
8086;SDS011;4086;54.412;9.980;2023-02-01T10:17:45;21.23;;;4.00;;
8086;SDS011;4086;54.412;9.980;2023-02-01T10:20:20;23.83;;;3.93;;
8086;SDS011;4086;54.412;9.980;2023-02-01T10:22:53;15.97;;;3.50;;
8086;SDS011;4086;54.412;9.980;2023-02-01T10:25:28;12.57;;;3.53;;
8086;SDS011;4086;54.412;9.980;2023-02-01T10:27:59;12.00;;;2.60;;
8086;SDS011;4086;54.412;9.980;2023-02-01T10:30:29;14.70;;;3.03;;
8086;SDS011;4086;54.412;9.980;2023-02-01T10:32:56;12.03;;;2.73;;
8086;SDS011;4086;54.412;9.980;2023-02-01T10:35:28;20.10;;;2.67;;
8086;SDS011;4086;54.412;9.980;2023-02-01T10:37:58;11.50;;;2.63;;
8086;SDS011;4086;54.412;9.980;2023-02-01T10:40:29;19.17;;;3.80;;
8086;SDS011;4086;54.412;9.980;2023-02-01T10:42:56;20.87;;;3.23;;
8086;SDS011;4086;54.412;9.980;2023-02-01T10:45:25;17.53;;;3.27;;
8086;SDS011;4086;54.412;9.980;2023-02-01T10:47:53;21.07;;;4.23;;
8086;SDS011;4086;54.412;9.980;2023-02-01T10:50:25;15.23;;;3.53;;
8086;SDS011;4086;54.412;9.980;2023-02-01T10:53:00;16.10;;;3.30;;
8086;SDS011;4086;54.412;9.980;2023-02-01T10:55:34;22.03;;;3.43;;
8086;SDS011;4086;54.412;9.980;2023-02-01T10:58:03;17.50;;;3.27;;
8086;SDS011;4086;54.412;9.980;2023-02-01T11:00:34;14.50;;;3.13;;
8086;SDS011;4086;54.412;9.980;2023-02-01T11:03:19;12.60;;;2.53;;
8086;SDS011;4086;54.412;9.980;2023-02-01T11:05:46;17.07;;;2.50;;
8086;SDS011;4086;54.412;9.980;2023-02-01T11:08:14;6.27;;;1.83;;
8086;SDS011;4086;54.412;9.980;2023-02-01T11:10:43;12.77;;;2.33;;
8086;SDS011;4086;54.412;9.980;2023-02-01T11:13:11;9.13;;;2.80;;
8086;SDS011;4086;54.412;9.980;2023-02-01T11:15:42;14.13;;;2.77;;
8086;SDS011;4086;54.412;9.980;2023-02-01T11:18:14;17.00;;;3.00;;
8086;SDS011;4086;54.412;9.980;2023-02-01T11:20:42;10.23;;;2.00;;
8086;SDS011;4086;54.412;9.980;2023-02-01T11:23:13;13.87;;;2.53;;
8086;SDS011;4086;54.412;9.980;2023-02-01T11:25:48;18.33;;;3.37;;
8086;SDS011;4086;54.412;9.980;2023-02-01T11:28:16;15.13;;;3.47;;
8086;SDS011;4086;54.412;9.980;2023-02-01T11:30:43;18.40;;;3.40;;
8086;SDS011;4086;54.412;9.980;2023-02-01T11:33:12;13.33;;;2.77;;
8086;SDS011;4086;54.412;9.980;2023-02-01T11:35:40;12.87;;;3.00;;
8086;SDS011;4086;54.412;9.980;2023-02-01T11:38:11;17.53;;;3.70;;
8086;SDS011;4086;54.412;9.980;2023-02-01T11:40:42;13.73;;;3.13;;
8086;SDS011;4086;54.412;9.980;2023-02-01T11:43:12;18.33;;;2.80;;
8086;SDS011;4086;54.412;9.980;2023-02-01T11:45:40;18.50;;;3.40;;
8086;SDS011;4086;54.412;9.980;2023-02-01T11:48:07;15.60;;;2.83;;
8086;SDS011;4086;54.412;9.980;2023-02-01T11:50:37;15.60;;;3.20;;
8086;SDS011;4086;54.412;9.980;2023-02-01T11:53:11;9.93;;;2.83;;
8086;SDS011;4086;54.412;9.980;2023-02-01T11:55:48;10.53;;;2.33;;
8086;SDS011;4086;54.412;9.980;2023-02-01T11:58:35;10.13;;;2.03;;
8086;SDS011;4086;54.412;9.980;2023-02-01T12:01:13;11.30;;;2.03;;
8086;SDS011;4086;54.412;9.980;2023-02-01T12:03:52;12.13;;;2.13;;
8086;SDS011;4086;54.412;9.980;2023-02-01T12:06:42;6.80;;;1.93;;
8086;SDS011;4086;54.412;9.980;2023-02-01T12:09:20;8.57;;;2.30;;
8086;SDS011;4086;54.412;9.980;2023-02-01T12:12:08;8.23;;;1.30;;
8086;SDS011;4086;54.412;9.980;2023-02-01T12:14:46;8.83;;;2.67;;
8086;SDS011;4086;54.412;9.980;2023-02-01T12:17:27;9.60;;;2.07;;
8086;SDS011;4086;54.412;9.980;2023-02-01T12:20:17;7.73;;;1.00;;
8086;SDS011;4086;54.412;9.980;2023-02-01T12:22:52;9.93;;;1.83;;
8086;SDS011;4086;54.412;9.980;2023-02-01T12:25:28;5.07;;;1.20;;
8086;SDS011;4086;54.412;9.980;2023-02-01T12:28:10;7.73;;;1.40;;
8086;SDS011;4086;54.412;9.980;2023-02-01T12:33:40;6.13;;;2.17;;
8086;SDS011;4086;54.412;9.980;2023-02-01T12:36:15;11.17;;;2.20;;
8086;SDS011;4086;54.412;9.980;2023-02-01T12:38:51;8.73;;;1.40;;
8086;SDS011;4086;54.412;9.980;2023-02-01T12:41:31;12.30;;;1.90;;
8086;SDS011;4086;54.412;9.980;2023-02-01T12:44:03;10.53;;;2.30;;
8086;SDS011;4086;54.412;9.980;2023-02-01T12:46:34;10.37;;;2.23;;
8086;SDS011;4086;54.412;9.980;2023-02-01T12:49:02;11.20;;;1.90;;
8086;SDS011;4086;54.412;9.980;2023-02-01T12:51:33;9.87;;;2.30;;
8086;SDS011;4086;54.412;9.980;2023-02-01T12:54:02;6.57;;;1.80;;
8086;SDS011;4086;54.412;9.980;2023-02-01T12:56:34;8.73;;;1.93;;
8086;SDS011;4086;54.412;9.980;2023-02-01T12:59:15;4.00;;;1.90;;
8086;SDS011;4086;54.412;9.980;2023-02-01T13:01:48;5.17;;;1.43;;
8086;SDS011;4086;54.412;9.980;2023-02-01T13:04:19;8.33;;;1.80;;
8086;SDS011;4086;54.412;9.980;2023-02-01T13:06:48;11.63;;;2.10;;
8086;SDS011;4086;54.412;9.980;2023-02-01T13:09:20;12.57;;;2.13;;
8086;SDS011;4086;54.412;9.980;2023-02-01T13:11:49;4.97;;;1.70;;
8086;SDS011;4086;54.412;9.980;2023-02-01T13:14:25;8.10;;;1.93;;
8086;SDS011;4086;54.412;9.980;2023-02-01T13:16:57;7.80;;;1.70;;
8086;SDS011;4086;54.412;9.980;2023-02-01T13:19:27;6.17;;;1.50;;
8086;SDS011;4086;54.412;9.980;2023-02-01T13:21:56;6.63;;;1.50;;
8086;SDS011;4086;54.412;9.980;2023-02-01T13:24:29;6.17;;;1.93;;
8086;SDS011;4086;54.412;9.980;2023-02-01T13:26:59;7.03;;;1.70;;
8086;SDS011;4086;54.412;9.980;2023-02-01T13:29:26;5.60;;;1.80;;
8086;SDS011;4086;54.412;9.980;2023-02-01T13:34:51;7.93;;;2.00;;
8086;SDS011;4086;54.412;9.980;2023-02-01T13:37:31;8.80;;;2.40;;
8086;SDS011;4086;54.412;9.980;2023-02-01T13:40:11;12.83;;;1.70;;
8086;SDS011;4086;54.412;9.980;2023-02-01T13:42:46;10.90;;;2.03;;
8086;SDS011;4086;54.412;9.980;2023-02-01T13:45:14;9.00;;;1.97;;
8086;SDS011;4086;54.412;9.980;2023-02-01T13:47:44;6.27;;;1.53;;
8086;SDS011;4086;54.412;9.980;2023-02-01T13:50:13;9.50;;;2.13;;
8086;SDS011;4086;54.412;9.980;2023-02-01T13:52:50;8.73;;;2.10;;
8086;SDS011;4086;54.412;9.980;2023-02-01T13:55:24;15.07;;;2.60;;
8086;SDS011;4086;54.412;9.980;2023-02-01T13:57:58;12.40;;;3.10;;
8086;SDS011;4086;54.412;9.980;2023-02-01T14:00:28;13.33;;;2.27;;
8086;SDS011;4086;54.412;9.980;2023-02-01T14:03:08;11.87;;;2.67;;
8086;SDS011;4086;54.412;9.980;2023-02-01T14:06:00;24.47;;;3.27;;
8086;SDS011;4086;54.412;9.980;2023-02-01T14:08:43;15.97;;;3.50;;
8086;SDS011;4086;54.412;9.980;2023-02-01T14:14:07;16.60;;;3.27;;
8086;SDS011;4086;54.412;9.980;2023-02-01T14:23:29;12.57;;;3.17;;
8086;SDS011;4086;54.412;9.980;2023-02-01T14:26:01;9.03;;;2.20;;
8086;SDS011;4086;54.412;9.980;2023-02-01T14:28:30;20.87;;;3.07;;
8086;SDS011;4086;54.412;9.980;2023-02-01T14:30:56;21.20;;;2.97;;
8086;SDS011;4086;54.412;9.980;2023-02-01T14:33:24;15.83;;;2.73;;
8086;SDS011;4086;54.412;9.980;2023-02-01T14:35:55;13.57;;;2.87;;
8086;SDS011;4086;54.412;9.980;2023-02-01T14:38:28;20.70;;;3.13;;
8086;SDS011;4086;54.412;9.980;2023-02-01T14:41:09;12.53;;;2.53;;
8086;SDS011;4086;54.412;9.980;2023-02-01T14:43:49;14.27;;;3.00;;
8086;SDS011;4086;54.412;9.980;2023-02-01T14:46:17;17.63;;;3.10;;
8086;SDS011;4086;54.412;9.980;2023-02-01T14:48:44;18.33;;;2.87;;
8086;SDS011;4086;54.412;9.980;2023-02-01T14:51:13;18.20;;;3.17;;
8086;SDS011;4086;54.412;9.980;2023-02-01T14:53:42;17.40;;;3.30;;
8086;SDS011;4086;54.412;9.980;2023-02-01T14:56:11;13.47;;;3.00;;
8086;SDS011;4086;54.412;9.980;2023-02-01T14:58:40;11.37;;;3.17;;
8086;SDS011;4086;54.412;9.980;2023-02-01T15:01:15;23.23;;;3.57;;
8086;SDS011;4086;54.412;9.980;2023-02-01T15:03:46;20.27;;;3.50;;
8086;SDS011;4086;54.412;9.980;2023-02-01T15:06:20;17.07;;;3.10;;
8086;SDS011;4086;54.412;9.980;2023-02-01T15:08:52;16.60;;;3.83;;
8086;SDS011;4086;54.412;9.980;2023-02-01T15:11:20;21.37;;;3.23;;
8086;SDS011;4086;54.412;9.980;2023-02-01T15:13:47;16.53;;;3.00;;
8086;SDS011;4086;54.412;9.980;2023-02-01T15:16:15;14.20;;;3.60;;
8086;SDS011;4086;54.412;9.980;2023-02-01T15:18:43;23.50;;;3.53;;
8086;SDS011;4086;54.412;9.980;2023-02-01T15:21:14;21.60;;;3.00;;
8086;SDS011;4086;54.412;9.980;2023-02-01T15:23:43;25.83;;;3.80;;
8086;SDS011;4086;54.412;9.980;2023-02-01T15:26:12;18.00;;;3.17;;
8086;SDS011;4086;54.412;9.980;2023-02-01T15:28:50;20.90;;;3.80;;
8086;SDS011;4086;54.412;9.980;2023-02-01T15:31:30;24.20;;;3.83;;
8086;SDS011;4086;54.412;9.980;2023-02-01T15:33:58;20.40;;;3.23;;
8086;SDS011;4086;54.412;9.980;2023-02-01T15:36:24;22.33;;;4.77;;
8086;SDS011;4086;54.412;9.980;2023-02-01T15:41:40;20.37;;;3.47;;
8086;SDS011;4086;54.412;9.980;2023-02-01T15:44:11;24.10;;;4.50;;